Time;durP1;ratioP1;P1;durP2;ratioP2;P2;SDS_P1;SDS_P2;PMS_P1;PMS_P2;Temp;Humidity;BMP_temperature;BMP_pressure;BME280_temperature;BME280_humidity;BME280_pressure;Samples;Min_cycle;Max_cycle;Signal;HPM_P1;HPM_P2
2022/01/22 00:01:08;;;;;;;2.90;2.80;;;;;;;3.15;100.00;102840.50;4430986;32;20179;-74
2022/01/22 00:03:34;;;;;;;3.00;2.90;;;;;;;3.14;100.00;102831.81;4423461;32;20404;-74
2022/01/22 00:05:59;;;;;;;2.70;2.60;;;;;;;3.12;100.00;102820.53;4424019;32;20122;-71
2022/01/22 00:08:24;;;;;;;4.45;4.25;;;;;;;3.09;100.00;102830.91;4415562;32;20110;-72
2022/01/22 00:10:51;;;;;;;2.80;2.70;;;;;;;3.18;100.00;102843.97;4425465;32;20095;-75
2022/01/22 00:15:42;;;;;;;2.80;2.70;;;;;;;3.18;100.00;102838.78;4430282;32;20099;-72
2022/01/22 00:18:08;;;;;;;3.15;3.05;;;;;;;3.17;100.00;102834.47;4413992;32;20193;-73
2022/01/22 00:20:33;;;;;;;2.80;2.70;;;;;;;3.08;100.00;102823.09;4415525;32;20064;-73
2022/01/22 00:22:58;;;;;;;2.83;2.72;;;;;;;3.23;100.00;102825.00;4425153;32;20064;-74
2022/01/22 00:25:24;;;;;;;4.85;4.65;;;;;;;3.21;100.00;102837.97;4412658;32;20126;-73
2022/01/22 00:27:50;;;;;;;2.80;2.70;;;;;;;3.23;100.00;102846.66;4423437;32;20107;-72
2022/01/22 00:30:20;;;;;;;4.12;3.95;;;;;;;3.18;100.00;102843.97;4410743;32;20049;-75
2022/01/22 00:32:45;;;;;;;3.20;3.10;;;;;;;3.20;100.00;102839.66;4414607;32;20512;-73
2022/01/22 00:35:11;;;;;;;3.20;3.10;;;;;;;2.76;100.00;102764.75;4422792;32;20098;-74
2022/01/22 00:37:37;;;;;;;2.90;2.80;;;;;;;3.25;100.00;102844.03;4422840;32;20079;-75
2022/01/22 00:40:03;;;;;;;3.30;3.20;;;;;;;3.22;100.00;102834.50;4432787;32;20098;-75
2022/01/22 00:42:31;;;;;;;4.85;4.60;;;;;;;3.19;100.00;102839.69;4424329;32;20928;-73
2022/01/22 00:44:56;;;;;;;3.62;3.42;;;;;;;2.46;100.00;102722.84;4429753;32;20075;-74
2022/01/22 00:47:21;;;;;;;4.90;4.70;;;;;;;3.09;100.00;102814.47;4424268;32;20659;-72
2022/01/22 00:49:47;;;;;;;3.17;3.08;;;;;;;3.23;100.00;102837.97;4419728;32;20057;-72
2022/01/22 00:52:12;;;;;;;3.00;2.90;;;;;;;3.22;100.00;102841.44;4418703;32;20064;-71
2022/01/22 00:54:38;;;;;;;2.97;2.87;;;;;;;2.97;100.00;102794.44;4426700;32;20601;-73
2022/01/22 00:57:03;;;;;;;3.05;2.95;;;;;;;3.20;100.00;102850.06;4428868;32;20053;-72
2022/01/22 00:59:28;;;;;;;4.00;3.83;;;;;;;3.17;100.00;102847.44;4403797;32;20703;-75
2022/01/22 01:01:54;;;;;;;2.97;2.87;;;;;;;3.22;100.00;102838.84;4429633;32;21001;-73
2022/01/22 01:04:19;;;;;;;4.35;4.15;;;;;;;3.08;100.00;102813.56;4425208;32;20117;-73
2022/01/22 01:06:44;;;;;;;3.33;3.12;;;;;;;3.25;100.00;102841.44;4419909;32;20606;-71
2022/01/22 01:09:10;;;;;;;3.25;3.15;;;;;;;3.22;100.00;102841.44;4428598;32;20414;-74
2022/01/22 01:11:41;;;;;;;2.80;2.70;;;;;;;3.23;100.00;102841.47;4424661;32;20076;-72
2022/01/22 01:14:10;;;;;;;4.22;4.03;;;;;;;2.80;100.00;102760.47;4415908;32;20134;-73
2022/01/22 01:32:56;;;;;;;3.47;3.37;;;;;;;3.06;100.00;102824.78;4430662;32;20091;-71
2022/01/22 01:35:21;;;;;;;3.70;3.55;;;;;;;1.92;100.00;102631.41;4428718;32;20078;-73
2022/01/22 01:37:47;;;;;;;3.10;3.00;;;;;;;3.09;100.00;102832.63;4427845;32;20076;-73
2022/01/22 01:40:17;;;;;;;3.22;3.12;;;;;;;1.79;100.00;102656.25;4426396;32;20064;-73
2022/01/22 01:43:04;;;;;;;2.90;2.80;;;;;;;2.55;100.00;102770.50;4427228;32;20573;-73
2022/01/22 01:45:30;;;;;;;3.33;3.22;;;;;;;3.03;100.00;102842.88;4421079;32;20076;-72
2022/01/22 01:47:57;;;;;;;2.80;2.70;;;;;;;3.04;100.00;102845.50;4412769;32;20202;-72
2022/01/22 01:50:23;;;;;;;4.65;4.45;;;;;;;3.00;100.00;102842.00;4407684;32;20076;-74
2022/01/22 01:53:03;;;;;;;2.90;2.80;;;;;;;3.03;100.00;102840.28;4429443;32;20082;-73
2022/01/22 01:55:47;;;;;;;4.55;4.35;;;;;;;2.97;100.00;102836.78;4423906;32;20171;-74
2022/01/22 01:58:13;;;;;;;3.85;3.65;;;;;;;3.00;100.00;102833.34;4428246;32;20086;-74
2022/01/22 02:00:39;;;;;;;16.05;15.25;;;;;;;2.98;100.00;102845.44;4395747;32;20079;-73
2022/01/22 02:03:05;;;;;;;2.80;2.70;;;;;;;2.91;100.00;102831.50;4385845;32;20118;-74
2022/01/22 02:05:32;;;;;;;2.90;2.80;;;;;;;2.90;100.00;102839.28;4416971;32;20324;-72
2022/01/22 02:07:58;;;;;;;3.72;3.42;;;;;;;2.92;100.00;102829.78;4422891;32;20079;-71
2022/01/22 02:10:27;;;;;;;4.97;4.78;;;;;;;2.99;100.00;102831.62;4426612;32;20065;-74
2022/01/22 02:23:44;;;;;;;4.45;4.25;;;;;;;2.78;100.00;102811.44;4430423;32;20113;-73
2022/01/22 02:26:10;;;;;;;2.95;2.85;;;;;;;1.93;100.00;102670.28;4415419;32;20075;-73
2022/01/22 02:28:36;;;;;;;2.92;2.83;;;;;;;2.45;100.00;102724.59;4425792;32;20085;-73
2022/01/22 02:31:11;;;;;;;3.20;3.10;;;;;;;2.73;100.00;102772.50;4430059;32;20182;-72
2022/01/22 02:38:52;;;;;;;2.97;2.87;;;;;;;2.96;100.00;102810.81;4429307;32;20150;-72
2022/01/22 02:41:19;;;;;;;4.87;4.45;;;;;;;2.83;100.00;102795.94;4415933;32;20120;-73
2022/01/22 02:43:47;;;;;;;3.10;3.00;;;;;;;2.89;100.00;102817.66;4427324;32;20061;-71
2022/01/22 02:46:16;;;;;;;2.80;2.70;;;;;;;2.95;100.00;102807.38;4428390;32;20573;-71
2022/01/22 02:48:41;;;;;;;3.20;3.10;;;;;;;2.99;100.00;102809.16;4423201;32;20071;-73
2022/01/22 02:51:06;;;;;;;2.80;2.70;;;;;;;3.04;100.00;102810.94;4428667;32;20604;-73
2022/01/22 02:53:32;;;;;;;3.90;3.70;;;;;;;2.50;100.00;102728.09;4407952;32;20065;-73
2022/01/22 02:55:57;;;;;;;3.37;3.17;;;;;;;3.03;100.00;102806.56;4426310;32;20212;-74
2022/01/22 02:58:24;;;;;;;5.03;4.80;;;;;;;3.02;100.00;102821.28;4409210;32;20073;-73
2022/01/22 03:00:49;;;;;;;3.30;3.20;;;;;;;2.98;100.00;102802.19;4435281;32;20868;-72
2022/01/22 03:03:14;;;;;;;4.43;4.22;;;;;;;3.06;100.00;102811.81;4412096;32;20061;-72
2022/01/22 03:05:40;;;;;;;3.00;2.90;;;;;;;3.06;100.00;102810.09;4422515;32;20068;-72
2022/01/22 03:08:08;;;;;;;2.72;2.62;;;;;;;3.02;100.00;102805.72;4427377;32;20907;-73
2022/01/22 03:10:34;;;;;;;4.40;3.25;;;;;;;3.09;100.00;102791.12;4415092;32;20593;-72
2022/01/22 03:18:02;;;;;;;3.15;3.05;;;;;;;3.10;100.00;102798.03;4428367;32;20076;-72
2022/01/22 03:27:19;;;;;;;2.80;2.70;;;;;;;2.99;100.00;102808.28;4429578;32;20561;-75
2022/01/22 03:28:53;;;;;;;2.90;2.80;;;;;;;3.11;100.00;102816.22;4430812;32;20086;-73
2022/01/22 03:31:19;;;;;;;4.70;4.50;;;;;;;3.12;100.00;102812.75;4420156;32;20174;-74
2022/01/22 03:33:44;;;;;;;2.75;2.65;;;;;;;3.16;100.00;102811.94;4428729;32;20235;-73
2022/01/22 03:36:11;;;;;;;3.75;3.35;;;;;;;2.12;100.00;102649.81;4425943;32;20084;-73
2022/01/22 03:38:36;;;;;;;4.10;3.90;;;;;;;3.14;100.00;102810.19;4416244;32;20091;-72
2022/01/22 03:41:02;;;;;;;3.00;2.90;;;;;;;3.18;100.00;102818.03;4426338;32;20672;-73
2022/01/22 03:43:28;;;;;;;5.70;5.35;;;;;;;3.02;100.00;102782.37;4412385;32;20075;-73
2022/01/22 03:45:53;;;;;;;3.20;3.10;;;;;;;3.20;100.00;102811.12;4418305;32;20551;-73
2022/01/22 03:48:18;;;;;;;4.55;4.35;;;;;;;3.19;100.00;102817.19;4419645;32;20357;-71
2022/01/22 03:50:44;;;;;;;3.42;3.20;;;;;;;3.18;100.00;102819.75;4417184;32;20086;-74
2022/01/22 03:53:09;;;;;;;3.85;3.65;;;;;;;2.87;100.00;102761.44;4426853;32;20523;-73
2022/01/22 03:55:47;;;;;;;2.92;2.83;;;;;;;3.18;100.00;102819.75;4412629;32;21013;-73
2022/01/22 03:58:13;;;;;;;3.28;3.15;;;;;;;3.13;100.00;102817.13;4413464;32;20169;-72
2022/01/22 04:00:38;;;;;;;3.25;3.15;;;;;;;2.35;100.00;102679.53;4413551;32;20086;-72
2022/01/22 04:08:31;;;;;;;4.03;3.83;;;;;;;3.24;100.00;102824.16;4424205;32;20270;-74
2022/01/22 04:10:57;;;;;;;3.25;3.15;;;;;;;3.22;100.00;102831.91;4433958;32;20061;-72
2022/01/22 04:13:30;;;;;;;5.30;5.05;;;;;;;2.72;100.00;102751.72;4422875;32;20611;-71
2022/01/22 04:15:56;;;;;;;3.20;3.00;;;;;;;3.21;100.00;102825.00;4415273;32;20096;-73
2022/01/22 04:26:42;;;;;;;3.20;3.10;;;;;;;3.23;100.00;102827.59;4442211;32;20090;-73
2022/01/22 04:29:08;;;;;;;3.80;3.60;;;;;;;3.26;100.00;102827.66;4429515;32;20074;-72
2022/01/22 04:31:33;;;;;;;2.80;2.70;;;;;;;3.26;100.00;102822.44;4425120;32;22620;-72
2022/01/22 04:33:59;;;;;;;3.00;2.90;;;;;;;3.26;100.00;102815.53;4426021;32;20148;-71
2022/01/22 04:36:24;;;;;;;4.65;4.45;;;;;;;3.26;100.00;102831.09;4430854;32;20104;-74
2022/01/22 04:38:49;;;;;;;3.65;3.40;;;;;;;2.95;100.00;102775.37;4427447;32;20072;-73
2022/01/22 04:41:15;;;;;;;4.10;3.90;;;;;;;3.27;100.00;102827.66;4423088;32;20077;-72
2022/01/22 04:43:42;;;;;;;3.08;2.97;;;;;;;3.17;100.00;102807.66;4421626;32;20195;-74
2022/01/22 04:46:17;;;;;;;2.90;2.80;;;;;;;3.19;100.00;102808.53;4413387;32;20515;-74
2022/01/22 04:49:06;;;;;;;3.30;3.20;;;;;;;3.28;100.00;102819.00;4424753;32;20068;-73
2022/01/22 04:56:58;;;;;;;2.83;2.72;;;;;;;3.28;100.00;102815.56;4428183;32;20081;-73
2022/01/22 04:59:24;;;;;;;6.07;5.70;;;;;;;3.27;100.00;102819.00;4425941;32;20064;-73
2022/01/22 05:01:49;;;;;;;2.87;2.78;;;;;;;3.27;100.00;102813.78;4422569;32;20087;-74
2022/01/22 05:04:14;;;;;;;4.05;3.90;;;;;;;3.30;100.00;102827.69;4424043;32;20697;-71
2022/01/22 05:06:40;;;;;;;3.00;2.90;;;;;;;3.02;100.00;102808.31;4417049;32;20083;-73
2022/01/22 05:09:05;;;;;;;2.85;2.75;;;;;;;3.28;100.00;102815.56;4427417;32;20072;-74
2022/01/22 05:11:30;;;;;;;3.83;3.62;;;;;;;3.32;100.00;102822.53;4417848;32;20649;-72
2022/01/22 05:13:56;;;;;;;2.90;2.80;;;;;;;3.13;100.00;102791.16;4437356;32;20080;-73
2022/01/22 05:16:21;;;;;;;4.28;4.07;;;;;;;3.38;100.00;102815.66;4424751;32;20416;-72
2022/01/22 05:19:01;;;;;;;3.33;3.15;;;;;;;3.33;100.00;102817.38;4428552;32;20661;-73
2022/01/22 05:21:29;;;;;;;4.45;4.25;;;;;;;3.39;100.00;102809.66;4426015;32;20075;-73
2022/01/22 05:23:58;;;;;;;3.97;3.65;;;;;;;3.43;100.00;102815.75;4425271;32;20079;-72
2022/01/22 05:27:25;;;;;;;4.32;4.12;;;;;;;3.50;100.00;102822.75;4412691;32;20915;-74
2022/01/22 05:29:57;;;;;;;11.38;3.50;;;;;;;3.44;100.00;102819.22;4420920;32;20071;-74
2022/01/22 05:32:27;;;;;;;2.72;2.62;;;;;;;3.32;100.00;102806.97;4436872;32;20083;-73
2022/01/22 05:37:37;;;;;;;3.40;3.30;;;;;;;3.45;100.00;102821.84;4427961;32;20149;-73
2022/01/22 05:40:03;;;;;;;3.22;3.12;;;;;;;3.35;100.00;102807.88;4425824;32;20060;-72
2022/01/22 05:42:28;;;;;;;4.80;4.60;;;;;;;3.30;100.00;102793.09;4409994;32;20084;-73
2022/01/22 05:44:54;;;;;;;3.10;3.00;;;;;;;3.46;100.00;102826.16;4421860;32;20656;-73
2022/01/22 05:47:23;;;;;;;5.12;4.90;;;;;;;3.50;100.00;102827.06;4422516;32;20272;-74
2022/01/22 05:49:49;;;;;;;3.10;3.00;;;;;;;3.48;100.00;102829.63;4414647;32;20140;-73
2022/01/22 05:52:20;;;;;;;3.55;3.42;;;;;;;3.50;100.00;102825.34;4420620;32;20608;-72
2022/01/22 06:00:14;;;;;;;2.85;2.75;;;;;;;3.51;100.00;102840.06;4420435;32;20087;-74
2022/01/22 06:02:39;;;;;;;3.00;2.90;;;;;;;3.52;100.00;102834.00;4411613;32;20060;-73
2022/01/22 06:05:04;;;;;;;2.90;2.80;;;;;;;3.56;100.00;102833.19;4422288;32;20070;-74
2022/01/22 06:07:30;;;;;;;4.12;3.92;;;;;;;3.51;100.00;102836.63;4424464;32;20128;-72
2022/01/22 06:12:41;;;;;;;4.85;4.65;;;;;;;3.54;100.00;102845.28;4425056;32;20159;-72
2022/01/22 06:15:07;;;;;;;3.50;3.30;;;;;;;3.51;100.00;102839.22;4420093;32;20199;-72
2022/01/22 06:17:32;;;;;;;3.67;3.47;;;;;;;3.51;100.00;102844.41;4422673;32;20779;-73
2022/01/22 06:19:57;;;;;;;2.90;2.80;;;;;;;3.49;100.00;102846.97;4421446;32;20068;-75
2022/01/22 06:22:23;;;;;;;4.72;4.53;;;;;;;3.36;100.00;102812.19;4423456;32;20072;-73
2022/01/22 06:24:48;;;;;;;3.00;2.90;;;;;;;3.58;100.00;102856.59;4421782;32;20676;-73
2022/01/22 06:27:13;;;;;;;4.62;4.40;;;;;;;3.38;100.00;102854.59;4408419;32;20064;-74
2022/01/22 06:29:39;;;;;;;2.90;2.80;;;;;;;3.44;100.00;102824.41;4434425;32;20482;-72
2022/01/22 06:32:04;;;;;;;3.08;2.97;;;;;;;3.58;100.00;102861.78;4423091;32;20099;-73
2022/01/22 06:34:30;;;;;;;3.78;3.65;;;;;;;3.47;100.00;102838.28;4413235;32;20531;-75
2022/01/22 06:36:55;;;;;;;4.12;3.80;;;;;;;3.62;100.00;102867.88;4423363;32;20122;-73
2022/01/22 06:39:21;;;;;;;4.65;4.45;;;;;;;3.57;100.00;102866.09;4426054;32;20142;-72
2022/01/22 06:41:47;;;;;;;2.95;2.85;;;;;;;3.58;100.00;102867.81;4416438;32;20064;-73
2022/01/22 06:44:16;;;;;;;3.55;3.20;;;;;;;3.18;100.00;102789.47;4426109;32;20076;-73
2022/01/22 06:46:42;;;;;;;3.00;2.90;;;;;;;3.65;100.00;102880.87;4415009;32;20514;-73
2022/01/22 06:49:08;;;;;;;5.07;4.43;;;;;;;3.43;100.00;102841.72;4424191;32;20098;-73
2022/01/22 06:51:34;;;;;;;3.20;3.00;;;;;;;3.64;100.00;102877.41;4422768;32;20812;-73
2022/01/22 06:54:03;;;;;;;3.15;2.95;;;;;;;3.67;100.00;102880.06;4417930;32;20628;-74
2022/01/22 06:56:29;;;;;;;4.53;4.32;;;;;;;3.59;100.00;102876.50;4424163;32;20543;-73
2022/01/22 06:58:55;;;;;;;3.00;2.90;;;;;;;3.65;100.00;102886.06;4416263;32;20403;-75
2022/01/22 07:01:21;;;;;;;4.37;4.18;;;;;;;3.64;100.00;102889.53;4418840;32;20205;-71
2022/01/22 07:03:46;;;;;;;3.28;3.17;;;;;;;3.64;100.00;102893.00;4414676;32;20095;-70
2022/01/22 07:06:11;;;;;;;3.20;3.10;;;;;;;3.53;100.00;102873.84;4412475;32;20079;-73
2022/01/22 07:08:38;;;;;;;3.47;3.37;;;;;;;3.52;100.00;102878.13;4428301;32;20742;-73
2022/01/22 07:11:03;;;;;;;3.55;3.35;;;;;;;3.67;100.00;102890.44;4429721;32;20118;-73
2022/01/22 07:13:28;;;;;;;4.93;4.62;;;;;;;3.68;100.00;102889.59;4410103;32;20072;-73
2022/01/22 07:15:54;;;;;;;3.10;3.00;;;;;;;3.71;100.00;102891.34;4424244;32;20092;-73
2022/01/22 07:18:19;;;;;;;4.97;4.78;;;;;;;3.68;100.00;102906.91;4421326;32;20383;-74
2022/01/22 07:20:45;;;;;;;3.20;3.10;;;;;;;3.72;100.00;102909.53;4423915;32;20178;-74
2022/01/22 07:25:54;;;;;;;3.37;3.17;;;;;;;3.72;100.00;102914.72;4427900;32;20579;-72
2022/01/22 07:28:20;;;;;;;6.82;6.30;;;;;;;3.69;100.00;102912.13;4406392;32;20524;-72
2022/01/22 07:30:46;;;;;;;3.62;3.42;;;;;;;3.66;100.00;102938.03;4412222;32;20577;-73
2022/01/22 07:33:12;;;;;;;3.10;3.00;;;;;;;3.70;100.00;102918.16;4406987;32;20756;-72
2022/01/22 07:35:38;;;;;;;3.20;3.10;;;;;;;3.53;100.00;102895.47;4420249;32;20169;-72
2022/01/22 07:38:03;;;;;;;3.20;3.10;;;;;;;3.72;100.00;102924.25;4422649;32;20103;-72
2022/01/22 07:40:29;;;;;;;4.40;4.20;;;;;;;3.70;100.00;102928.56;4417993;32;20646;-73
2022/01/22 07:42:55;;;;;;;4.00;3.80;;;;;;;3.38;100.00;102875.38;4421196;32;20534;-71
2022/01/22 07:45:20;;;;;;;4.95;4.75;;;;;;;3.70;100.00;102925.97;4420627;32;20072;-74
2022/01/22 07:47:45;;;;;;;3.12;3.03;;;;;;;3.72;100.00;102927.72;4422940;32;20079;-72
2022/01/22 07:50:11;;;;;;;3.15;3.05;;;;;;;3.74;100.00;102940.72;4411547;32;20079;-73
2022/01/22 07:52:36;;;;;;;3.50;3.30;;;;;;;3.74;100.00;102926.00;4418852;32;20518;-73
2022/01/22 07:55:03;;;;;;;4.30;4.10;;;;;;;3.73;100.00;102926.03;4423629;32;20080;-73
2022/01/22 07:57:28;;;;;;;5.28;5.07;;;;;;;3.78;100.00;102922.59;4418298;32;20094;-72
2022/01/22 07:59:54;;;;;;;3.35;3.25;;;;;;;3.72;100.00;102921.66;4424211;32;20095;-73
2022/01/22 08:02:19;;;;;;;5.20;5.00;;;;;;;3.51;100.00;102880.75;4424041;32;20082;-73
2022/01/22 08:04:44;;;;;;;5.97;3.62;;;;;;;3.68;100.00;102951.91;4421164;32;20076;-72
2022/01/22 08:07:10;;;;;;;3.50;3.30;;;;;;;2.57;100.00;102762.75;4413237;32;20586;-73
2022/01/22 08:09:36;;;;;;;4.03;3.83;;;;;;;3.58;100.00;102909.38;4420546;32;20068;-73
2022/01/22 08:12:01;;;;;;;3.30;3.20;;;;;;;3.75;100.00;102937.28;4424885;32;20356;-73
2022/01/22 08:14:27;;;;;;;5.15;4.95;;;;;;;3.78;100.00;102938.19;4406542;32;20133;-72
2022/01/22 08:16:52;;;;;;;4.03;3.72;;;;;;;3.88;100.00;102941.75;4419790;32;20391;-73
2022/01/22 08:19:17;;;;;;;4.80;4.60;;;;;;;3.88;100.00;102940.91;4408440;32;20077;-73
2022/01/22 08:21:44;;;;;;;3.40;3.30;;;;;;;3.90;100.00;102934.00;4429052;32;20510;-73
2022/01/22 08:24:10;;;;;;;3.00;2.90;;;;;;;3.92;100.00;102927.09;4422808;32;20088;-72
2022/01/22 08:26:40;;;;;;;3.83;3.62;;;;;;;4.05;100.00;102928.97;4425251;32;20088;-72
2022/01/22 08:29:05;;;;;;;4.20;4.00;;;;;;;4.07;100.00;102934.16;4419516;32;20091;-73
2022/01/22 08:36:44;;;;;;;3.70;3.50;;;;;;;4.20;100.00;102944.72;4419687;32;20328;-72
2022/01/22 08:39:09;;;;;;;3.10;3.00;;;;;;;3.91;100.00;102915.84;4427419;32;20460;-73
2022/01/22 08:41:35;;;;;;;3.40;3.30;;;;;;;4.09;100.00;102945.44;4416948;32;20087;-73
2022/01/22 08:44:00;;;;;;;4.07;3.85;;;;;;;4.12;100.00;102942.91;4420318;32;20076;-72
2022/01/22 08:46:26;;;;;;;5.43;5.20;;;;;;;4.15;100.00;102941.22;4409020;32;20141;-72
2022/01/22 08:48:52;;;;;;;3.42;3.33;;;;;;;4.17;100.00;102938.63;4407756;32;20068;-73
2022/01/22 08:51:17;;;;;;;5.10;4.90;;;;;;;4.18;100.00;102942.97;4420105;32;20076;-74
2022/01/22 08:53:42;;;;;;;3.90;3.70;;;;;;;4.22;100.00;102936.94;4420369;32;20601;-72
2022/01/22 08:56:09;;;;;;;3.50;3.40;;;;;;;4.30;100.00;102935.28;4419125;32;20490;-73
2022/01/22 08:58:35;;;;;;;3.30;3.20;;;;;;;4.31;100.00;102942.25;4397575;32;20068;-72
2022/01/22 09:01:00;;;;;;;3.90;3.70;;;;;;;4.47;100.00;102942.37;4420959;32;20101;-73
2022/01/22 09:03:25;;;;;;;5.03;4.82;;;;;;;4.47;100.00;102932.88;4411695;32;20164;-73
2022/01/22 09:05:51;;;;;;;3.87;3.67;;;;;;;4.56;100.00;102932.94;4420775;32;20072;-73
2022/01/22 09:08:17;;;;;;;5.62;5.22;;;;;;;4.68;100.00;102945.19;4401592;32;20192;-73
2022/01/22 09:10:42;;;;;;;3.55;3.45;;;;;;;4.65;100.00;102928.66;4421588;32;20638;-73
2022/01/22 09:13:09;;;;;;;3.25;3.15;;;;;;;4.62;100.00;102933.84;4420990;32;20161;-72
2022/01/22 09:15:34;;;;;;;3.70;3.40;;;;;;;4.51;100.00;102936.34;4424045;32;20159;-73
2022/01/22 09:17:59;;;;;;;3.60;3.50;;;;;;;4.13;100.00;102866.66;4419868;32;20068;-71
2022/01/22 09:23:17;;;;;;;4.65;4.45;;;;;;;4.71;100.00;102952.13;4403593;32;20598;-73
2022/01/22 09:25:42;;;;;;;3.55;3.45;;;;;;;4.56;100.00;102953.72;4419337;32;20125;-71
2022/01/22 09:28:10;;;;;;;3.42;3.33;;;;;;;4.72;100.00;102953.88;4425397;32;20448;-72
2022/01/22 09:30:36;;;;;;;3.50;3.40;;;;;;;4.86;100.00;102964.41;4422098;32;20220;-74
2022/01/22 09:33:01;;;;;;;3.40;3.30;;;;;;;4.73;100.00;102940.00;4411239;32;20111;-72
2022/01/22 09:35:27;;;;;;;7.20;6.57;;;;;;;4.85;100.00;102960.03;4422123;32;20153;-71
2022/01/22 09:37:52;;;;;;;4.62;4.32;;;;;;;4.88;100.00;102957.47;4408498;32;20061;-73
2022/01/22 09:40:17;;;;;;;5.05;4.85;;;;;;;4.99;100.00;102963.62;4424158;32;20071;-72
2022/01/22 09:42:43;;;;;;;5.62;5.07;;;;;;;5.07;100.00;102961.06;4411897;32;20376;-72
2022/01/22 09:45:09;;;;;;;3.70;3.55;;;;;;;5.00;100.00;102966.25;4437806;32;20076;-73
2022/01/22 09:47:34;;;;;;;4.05;3.85;;;;;;;4.13;100.00;102856.28;4425608;32;20295;-72
2022/01/22 09:49:59;;;;;;;4.80;4.60;;;;;;;4.31;100.00;102853.87;4400353;32;20080;-72
2022/01/22 09:52:25;;;;;;;5.28;5.07;;;;;;;4.98;100.00;102957.56;4416010;32;20217;-73
2022/01/22 09:54:50;;;;;;;3.92;3.72;;;;;;;4.80;100.00;102975.63;4400831;32;20083;-71
2022/01/22 09:57:15;;;;;;;5.37;5.18;;;;;;;4.33;100.00;102875.53;4399902;32;20077;-74
2022/01/22 09:59:41;;;;;;;4.32;4.03;;;;;;;4.54;100.00;102912.97;4422770;32;20518;-72
2022/01/22 10:02:11;;;;;;;4.20;4.00;;;;;;;4.02;100.00;102855.31;4419543;32;20558;-72
2022/01/22 10:04:38;;;;;;;4.47;4.28;;;;;;;4.86;100.00;102961.81;4424020;32;20502;-72
2022/01/22 10:07:03;;;;;;;3.75;3.60;;;;;;;4.71;100.00;102970.34;4416998;32;21155;-71
2022/01/22 10:09:36;;;;;;;4.85;4.65;;;;;;;4.66;100.00;102954.69;4419780;32;20141;-72
2022/01/22 10:12:19;;;;;;;3.70;3.60;;;;;;;4.40;100.00;102903.31;4424988;32;20187;-74
2022/01/22 10:15:03;;;;;;;3.60;3.50;;;;;;;4.76;100.00;102968.66;4428193;32;20074;-72
2022/01/22 10:17:44;;;;;;;4.90;4.70;;;;;;;3.72;100.00;102797.00;4431880;32;20598;-72
2022/01/22 10:20:26;;;;;;;4.35;4.15;;;;;;;4.66;100.00;102969.44;4427385;32;20206;-72
2022/01/22 10:22:57;;;;;;;4.62;4.22;;;;;;;4.74;100.00;102970.38;4429921;32;20065;-72
2022/01/22 10:25:44;;;;;;;5.15;4.95;;;;;;;4.48;100.00;102938.94;4407876;32;20328;-71
2022/01/22 10:28:15;;;;;;;6.87;6.32;;;;;;;4.78;100.00;102973.00;4395722;32;20353;-74
2022/01/22 10:30:43;;;;;;;3.37;3.28;;;;;;;4.85;100.00;102975.66;4418789;32;20076;-72
2022/01/22 10:35:44;;;;;;;3.20;3.10;;;;;;;5.10;100.00;102975.00;4428847;32;20187;-73
2022/01/22 10:38:10;;;;;;;4.50;4.20;;;;;;;4.90;100.00;102972.25;4417379;32;20234;-73
2022/01/22 10:40:37;;;;;;;3.70;3.60;;;;;;;5.04;100.00;102971.47;4419176;32;20139;-72
2022/01/22 10:48:43;;;;;;;3.55;3.42;;;;;;;5.29;100.00;102975.13;4418566;32;20418;-71
2022/01/22 10:51:13;;;;;;;5.40;5.20;;;;;;;4.90;100.00;102911.53;4413162;32;20142;-72
2022/01/22 10:53:49;;;;;;;3.92;3.72;;;;;;;5.08;100.00;102944.63;4429353;32;20144;-73
2022/01/22 10:56:19;;;;;;;3.80;3.70;;;;;;;5.24;100.00;102966.41;4424748;32;20780;-72
2022/01/22 10:59:07;;;;;;;3.12;3.03;;;;;;;5.36;100.00;102974.31;4414420;32;20081;-72
2022/01/22 11:01:45;;;;;;;3.83;3.62;;;;;;;5.36;100.00;102974.31;4416401;32;20075;-73
2022/01/22 11:04:15;;;;;;;6.85;5.32;;;;;;;5.43;100.00;102978.66;4440405;32;20102;-76
2022/01/22 11:06:57;;;;;;;3.17;3.08;;;;;;;4.58;100.00;102782.13;4424238;32;20068;-74
2022/01/22 11:09:23;;;;;;;4.00;3.80;;;;;;;5.60;100.00;102971.84;4440846;32;20132;-73
2022/01/22 11:11:49;;;;;;;4.22;4.03;;;;;;;5.86;100.00;102965.87;4422251;32;20072;-73
2022/01/22 11:14:14;;;;;;;3.95;3.75;;;;;;;5.87;100.00;102972.81;4412741;32;20583;-76
2022/01/22 11:16:41;;;;;;;3.58;3.47;;;;;;;6.06;100.00;102965.13;4426350;32;20134;-74
2022/01/22 11:19:08;;;;;;;5.35;5.15;;;;;;;6.01;100.00;102966.81;4422971;32;20610;-73
2022/01/22 11:21:33;;;;;;;3.40;3.30;;;;;;;5.85;100.00;102965.87;4433222;32;20103;-74
2022/01/22 11:23:59;;;;;;;5.78;5.50;;;;;;;5.49;100.00;102908.41;4424502;32;20577;-73
2022/01/22 11:26:24;;;;;;;3.50;3.40;;;;;;;5.79;100.00;102974.50;4426507;32;20092;-74
2022/01/22 11:28:51;;;;;;;3.37;3.28;;;;;;;5.76;100.00;102964.97;4426028;32;20581;-72
2022/01/22 11:31:17;;;;;;;3.62;3.42;;;;;;;5.82;100.00;102964.12;4425581;32;20741;-73
2022/01/22 11:33:43;;;;;;;4.15;3.95;;;;;;;5.18;100.00;102884.81;4427511;32;20163;-75
2022/01/22 11:36:25;;;;;;;4.75;4.55;;;;;;;5.66;100.00;102970.13;4421205;32;20360;-75
2022/01/22 11:38:58;;;;;;;3.43;3.30;;;;;;;5.57;100.00;102966.63;4442638;32;20088;-76
2022/01/22 11:41:24;;;;;;;3.50;3.40;;;;;;;5.27;100.00;102916.97;4418786;32;20148;-74
2022/01/22 11:44:20;;;;;;;3.40;3.30;;;;;;;5.44;100.00;102980.44;4413957;32;20079;-72
2022/01/22 11:46:58;;;;;;;3.33;3.22;;;;;;;4.84;100.00;102878.53;4446932;32;20084;-74
2022/01/22 11:49:26;;;;;;;3.25;3.15;;;;;;;5.25;100.00;102960.34;4431763;32;20082;-75
2022/01/22 11:52:07;;;;;;;3.50;3.40;;;;;;;5.28;100.00;102960.38;4419895;32;20183;-73
2022/01/22 11:54:47;;;;;;;4.15;3.95;;;;;;;5.04;100.00;102940.25;4447057;32;20584;-72
2022/01/22 11:57:16;;;;;;;4.40;4.20;;;;;;;5.17;100.00;102958.56;4436053;32;20139;-72
2022/01/22 11:59:43;;;;;;;3.40;3.30;;;;;;;5.18;100.00;102964.66;4419698;32;20331;-74
2022/01/22 12:02:12;;;;;;;5.15;4.95;;;;;;;4.82;100.00;102884.59;4432127;32;20803;-75
2022/01/22 12:04:37;;;;;;;3.50;3.40;;;;;;;5.31;100.00;102957.78;4426236;32;20086;-73
2022/01/22 12:07:03;;;;;;;5.25;5.05;;;;;;;5.27;100.00;102958.63;4441699;32;20065;-76
2022/01/22 12:09:31;;;;;;;3.83;3.62;;;;;;;5.10;100.00;102925.53;4435036;32;20481;-75
2022/01/22 12:14:50;;;;;;;3.45;3.35;;;;;;;5.34;100.00;102971.69;4439043;32;20125;-73
2022/01/22 12:17:28;;;;;;;3.60;3.50;;;;;;;5.43;100.00;102957.84;4432682;32;20079;-72
2022/01/22 12:22:33;;;;;;;4.12;3.92;;;;;;;5.45;100.00;102963.06;4427827;32;20068;-72
2022/01/22 12:25:08;;;;;;;4.65;4.45;;;;;;;5.49;100.00;102960.50;4448748;32;20098;-72
2022/01/22 12:27:50;;;;;;;3.40;3.30;;;;;;;4.87;100.00;102862.06;4436902;32;20060;-74
2022/01/22 12:30:17;;;;;;;4.13;3.93;;;;;;;5.59;100.00;102953.59;4427208;32;20681;-73
2022/01/22 12:32:43;;;;;;;3.22;3.12;;;;;;;4.89;100.00;102844.72;4413829;32;20079;-73
2022/01/22 12:35:10;;;;;;;4.80;4.60;;;;;;;5.61;100.00;102959.66;4408882;32;20122;-74
2022/01/22 12:37:40;;;;;;;3.42;3.33;;;;;;;5.52;100.00;102952.69;4422450;32;20198;-73
2022/01/22 12:40:06;;;;;;;5.15;4.85;;;;;;;5.55;100.00;102951.81;4409882;32;20126;-73
2022/01/22 12:43:01;;;;;;;3.30;3.20;;;;;;;5.48;100.00;102952.69;4413065;32;20135;-72
2022/01/22 12:45:26;;;;;;;3.90;3.70;;;;;;;5.46;100.00;102937.03;4414481;32;20069;-73
2022/01/22 12:47:52;;;;;;;3.42;3.33;;;;;;;4.36;100.00;102787.19;4424641;32;20075;-72
2022/01/22 12:50:23;;;;;;;3.72;3.60;;;;;;;5.38;100.00;102960.41;4422305;32;20219;-73
2022/01/22 12:52:49;;;;;;;3.50;3.40;;;;;;;5.02;100.00;102900.34;4417519;32;20072;-74
2022/01/22 12:55:19;;;;;;;4.03;3.83;;;;;;;5.33;100.00;102956.03;4408509;32;20149;-72
2022/01/22 12:57:45;;;;;;;3.30;3.20;;;;;;;5.39;100.00;102958.69;4422590;32;20166;-73
2022/01/22 13:00:16;;;;;;;5.00;4.80;;;;;;;5.19;100.00;102940.34;4420746;32;20668;-73
2022/01/22 13:02:44;;;;;;;3.40;3.30;;;;;;;5.42;100.00;102960.47;4428677;32;20775;-73
2022/01/22 13:05:12;;;;;;;4.43;4.22;;;;;;;5.35;100.00;102954.31;4435717;32;20068;-72
2022/01/22 13:07:53;;;;;;;3.30;3.20;;;;;;;5.42;100.00;102958.72;4411846;32;20567;-73